Time;durP1;ratioP1;P1;durP2;ratioP2;P2;SDS_P1;SDS_P2;PMS_P1;PMS_P2;Temp;Humidity;BMP_temperature;BMP_pressure;BME280_temperature;BME280_humidity;BME280_pressure;Samples;Min_cycle;Max_cycle;Signal;HPM_P1;HPM_P2
2023/02/02 00:00:18;;;;;;;5.07;0.90;;;;;;;;;;5071212;28;20476;-71
2023/02/02 00:02:46;;;;;;;3.47;1.60;;;;;;;;;;5073390;28;20473;-71
2023/02/02 00:05:13;;;;;;;2.53;1.10;;;;;;;;;;5072683;28;20449;-71
2023/02/02 00:07:40;;;;;;;1.90;0.80;;;;;;;;;;5073111;28;20439;-71
2023/02/02 00:10:07;;;;;;;3.53;1.33;;;;;;;;;;5073817;28;20449;-71
2023/02/02 00:12:36;;;;;;;2.40;1.10;;;;;;;;;;5073054;28;20936;-71
2023/02/02 00:15:03;;;;;;;2.70;0.80;;;;;;;;;;5073231;28;20453;-71
2023/02/02 00:17:30;;;;;;;2.40;0.80;;;;;;;;;;5072632;28;20449;-71
2023/02/02 00:19:57;;;;;;;1.60;0.90;;;;;;;;;;5073702;28;20453;-70
2023/02/02 00:22:24;;;;;;;2.13;0.63;;;;;;;;;;5072806;28;20481;-71
2023/02/02 00:24:51;;;;;;;1.67;1.13;;;;;;;;;;5073049;28;20453;-70
2023/02/02 00:27:18;;;;;;;2.40;1.27;;;;;;;;;;5073564;28;20456;-71
2023/02/02 00:29:48;;;;;;;1.23;0.80;;;;;;;;;;5073246;28;20453;-71
2023/02/02 00:32:15;;;;;;;0.77;0.53;;;;;;;;;;5073260;28;20884;-71
2023/02/02 00:34:42;;;;;;;3.57;2.00;;;;;;;;;;5072039;28;20449;-71
2023/02/02 00:37:09;;;;;;;1.20;0.70;;;;;;;;;;5073241;28;20445;-71
2023/02/02 00:39:36;;;;;;;4.20;1.27;;;;;;;;;;5072735;28;20450;-71
2023/02/02 00:42:03;;;;;;;1.90;1.00;;;;;;;;;;5073045;28;20456;-71
2023/02/02 00:47:16;;;;;;;1.67;0.80;;;;;;;;;;5072923;28;20416;-71
2023/02/02 00:49:43;;;;;;;1.50;1.00;;;;;;;;;;5072015;28;20933;-71
2023/02/02 00:52:10;;;;;;;1.63;1.07;;;;;;;;;;5072970;28;20462;-73
2023/02/02 00:54:38;;;;;;;2.00;1.07;;;;;;;;;;5071842;28;20449;-71
2023/02/02 00:57:05;;;;;;;6.03;1.73;;;;;;;;;;5072996;28;20803;-71
2023/02/02 00:59:32;;;;;;;1.20;1.03;;;;;;;;;;5072450;28;20449;-71
2023/02/02 01:02:00;;;;;;;1.23;1.13;;;;;;;;;;5073008;28;20465;-71
2023/02/02 01:04:29;;;;;;;1.50;1.20;;;;;;;;;;5071528;28;20571;-71
2023/02/02 01:06:56;;;;;;;3.67;1.23;;;;;;;;;;5072454;28;20457;-71
2023/02/02 01:09:23;;;;;;;2.50;1.43;;;;;;;;;;5071655;28;20941;-71
2023/02/02 01:11:50;;;;;;;1.23;0.70;;;;;;;;;;5072248;28;20445;-71
2023/02/02 01:14:17;;;;;;;1.20;0.80;;;;;;;;;;5072319;28;20460;-71
2023/02/02 01:16:44;;;;;;;3.27;1.60;;;;;;;;;;5072126;28;20810;-71
2023/02/02 01:19:13;;;;;;;6.83;1.50;;;;;;;;;;5071953;28;20460;-71
2023/02/02 01:21:41;;;;;;;1.40;1.10;;;;;;;;;;5071521;28;20450;-71
2023/02/02 01:24:09;;;;;;;6.83;1.30;;;;;;;;;;5071902;28;20509;-70
2023/02/02 01:26:36;;;;;;;3.73;1.23;;;;;;;;;;5071838;28;20449;-71
2023/02/02 01:29:03;;;;;;;1.97;0.97;;;;;;;;;;5071935;28;20551;-71
2023/02/02 01:31:30;;;;;;;1.20;0.70;;;;;;;;;;5071587;28;20453;-71
2023/02/02 01:33:57;;;;;;;1.17;0.77;;;;;;;;;;5071712;28;20890;-71
2023/02/02 01:36:25;;;;;;;0.70;0.50;;;;;;;;;;5071584;28;20449;-71
2023/02/02 01:38:53;;;;;;;1.73;1.63;;;;;;;;;;5072036;28;20809;-70
2023/02/02 01:41:21;;;;;;;2.80;1.10;;;;;;;;;;5072388;28;20449;-71
2023/02/02 01:43:53;;;;;;;1.83;0.83;;;;;;;;;;5071544;28;20485;-71
2023/02/02 01:46:21;;;;;;;1.07;0.80;;;;;;;;;;5071989;28;20442;-71
2023/02/02 01:48:51;;;;;;;3.90;1.20;;;;;;;;;;5071721;28;20442;-71
2023/02/02 01:51:20;;;;;;;5.80;0.90;;;;;;;;;;5071666;28;20445;-71
2023/02/02 01:53:48;;;;;;;0.93;0.83;;;;;;;;;;5071152;28;20927;-71
2023/02/02 01:56:19;;;;;;;3.30;1.23;;;;;;;;;;5071681;28;20446;-71
2023/02/02 01:58:47;;;;;;;2.77;0.87;;;;;;;;;;5071811;28;20445;-71
2023/02/02 02:01:14;;;;;;;1.90;1.00;;;;;;;;;;5071005;28;20437;-71
2023/02/02 02:03:42;;;;;;;1.20;0.83;;;;;;;;;;5070387;28;20500;-71
2023/02/02 02:06:10;;;;;;;3.93;1.10;;;;;;;;;;5071493;28;20890;-70
2023/02/02 02:08:39;;;;;;;1.63;0.93;;;;;;;;;;5070722;28;20453;-70
2023/02/02 02:11:07;;;;;;;2.10;1.00;;;;;;;;;;5071413;28;20456;-70
2023/02/02 02:16:25;;;;;;;1.63;0.50;;;;;;;;;;5070406;28;20902;-69
2023/02/02 02:18:56;;;;;;;1.73;0.77;;;;;;;;;;5070612;28;20468;-70
2023/02/02 02:27:49;;;;;;;1.63;1.27;;;;;;;;;;5069090;28;20421;-72
2023/02/02 02:30:30;;;;;;;0.60;0.50;;;;;;;;;;5071356;28;20520;-70
2023/02/02 02:33:04;;;;;;;5.33;0.97;;;;;;;;;;5071064;28;20456;-70
2023/02/02 02:35:33;;;;;;;2.67;1.07;;;;;;;;;;5070065;28;20444;-70
2023/02/02 02:38:02;;;;;;;4.77;0.80;;;;;;;;;;5070930;28;20441;-70
2023/02/02 02:40:32;;;;;;;4.00;0.90;;;;;;;;;;5070088;28;20456;-70
2023/02/02 02:43:00;;;;;;;1.13;0.70;;;;;;;;;;5071041;28;20496;-70
2023/02/02 02:45:28;;;;;;;2.10;0.73;;;;;;;;;;5069822;28;20485;-70
2023/02/02 02:47:56;;;;;;;1.67;0.50;;;;;;;;;;5070839;28;20510;-70
2023/02/02 02:50:24;;;;;;;3.47;0.80;;;;;;;;;;5070016;28;20472;-69
2023/02/02 02:52:55;;;;;;;6.90;1.20;;;;;;;;;;5075527;28;20920;-69
2023/02/02 02:55:23;;;;;;;1.00;0.70;;;;;;;;;;5070002;28;20456;-70
2023/02/02 02:57:59;;;;;;;2.60;0.90;;;;;;;;;;5070834;28;20441;-69
2023/02/02 03:00:44;;;;;;;2.60;1.17;;;;;;;;;;5070313;28;20445;-70
2023/02/02 03:03:15;;;;;;;2.10;1.07;;;;;;;;;;5070343;28;20484;-70
2023/02/02 03:05:49;;;;;;;2.10;0.50;;;;;;;;;;5069251;28;20464;-70
2023/02/02 03:08:18;;;;;;;0.80;0.50;;;;;;;;;;5070704;28;20464;-70
2023/02/02 03:10:46;;;;;;;1.73;0.77;;;;;;;;;;5069960;28;20453;-70
2023/02/02 03:13:15;;;;;;;0.90;0.60;;;;;;;;;;5070571;28;20437;-70
2023/02/02 03:15:42;;;;;;;5.33;1.10;;;;;;;;;;5069180;28;20457;-69
2023/02/02 03:18:10;;;;;;;3.17;1.63;;;;;;;;;;5070260;28;20924;-70
2023/02/02 03:20:37;;;;;;;2.57;1.13;;;;;;;;;;5070014;28;20441;-70
2023/02/02 03:23:05;;;;;;;0.63;0.47;;;;;;;;;;5070145;28;20937;-70
2023/02/02 03:25:32;;;;;;;1.47;0.93;;;;;;;;;;5069499;28;20456;-70
2023/02/02 03:27:59;;;;;;;1.70;0.67;;;;;;;;;;5070203;28;20446;-72
2023/02/02 03:30:26;;;;;;;2.80;0.67;;;;;;;;;;5069237;28;20456;-70
2023/02/02 03:32:54;;;;;;;2.73;0.70;;;;;;;;;;5069968;28;20441;-70
2023/02/02 03:35:21;;;;;;;1.00;0.57;;;;;;;;;;5070749;28;20453;-67
2023/02/02 03:37:48;;;;;;;2.00;0.80;;;;;;;;;;5074302;28;20481;-70
2023/02/02 03:40:17;;;;;;;1.00;0.70;;;;;;;;;;5070962;28;20441;-70
2023/02/02 03:42:44;;;;;;;0.80;0.50;;;;;;;;;;5073852;28;20460;-70
2023/02/02 03:45:12;;;;;;;0.60;0.50;;;;;;;;;;5073414;28;21071;-70
2023/02/02 03:47:39;;;;;;;1.90;0.60;;;;;;;;;;5073578;28;20798;-70
2023/02/02 03:50:06;;;;;;;1.57;0.67;;;;;;;;;;5074002;28;20537;-70
2023/02/02 03:52:33;;;;;;;0.67;0.50;;;;;;;;;;5073665;28;20445;-70
2023/02/02 03:55:00;;;;;;;1.07;0.60;;;;;;;;;;5073720;28;20815;-70
2023/02/02 03:57:29;;;;;;;4.43;0.73;;;;;;;;;;5073131;28;20449;-70
2023/02/02 03:59:56;;;;;;;0.70;0.57;;;;;;;;;;5073951;28;20454;-70
2023/02/02 04:02:23;;;;;;;1.10;0.77;;;;;;;;;;5073217;28;20464;-70
2023/02/02 04:04:50;;;;;;;1.00;0.60;;;;;;;;;;5073173;28;20477;-70
2023/02/02 04:07:17;;;;;;;0.70;0.50;;;;;;;;;;5074090;28;20452;-70
2023/02/02 04:09:45;;;;;;;2.50;0.97;;;;;;;;;;5073232;28;20444;-70
2023/02/02 04:12:12;;;;;;;0.90;0.60;;;;;;;;;;5073554;28;20464;-70
2023/02/02 04:14:40;;;;;;;1.10;0.73;;;;;;;;;;5072444;28;20953;-70
2023/02/02 04:17:07;;;;;;;1.40;0.90;;;;;;;;;;5073653;28;20456;-70
2023/02/02 04:19:34;;;;;;;2.33;0.70;;;;;;;;;;5072576;28;20940;-70
2023/02/02 04:22:01;;;;;;;1.90;0.77;;;;;;;;;;5073553;28;20446;-70
2023/02/02 04:24:28;;;;;;;2.83;0.67;;;;;;;;;;5072508;28;20481;-70
2023/02/02 04:26:55;;;;;;;1.53;0.70;;;;;;;;;;5073212;28;20446;-70
2023/02/02 04:29:24;;;;;;;0.90;0.50;;;;;;;;;;5059000;28;20940;-70
2023/02/02 04:31:52;;;;;;;2.30;0.70;;;;;;;;;;5073396;28;20450;-70
2023/02/02 04:34:19;;;;;;;1.23;1.13;;;;;;;;;;5069320;28;20445;-70
2023/02/02 04:36:46;;;;;;;3.33;0.50;;;;;;;;;;5073090;28;20445;-70
2023/02/02 04:39:13;;;;;;;1.27;0.63;;;;;;;;;;5073138;28;20817;-70
2023/02/02 04:41:41;;;;;;;1.43;0.90;;;;;;;;;;5072402;28;20752;-70
2023/02/02 04:44:13;;;;;;;1.60;0.90;;;;;;;;;;5072005;28;20511;-70
2023/02/02 04:46:40;;;;;;;2.67;0.60;;;;;;;;;;5071730;28;20778;-70
2023/02/02 04:49:10;;;;;;;0.70;0.50;;;;;;;;;;5072841;28;20452;-70
2023/02/02 04:51:37;;;;;;;1.20;0.77;;;;;;;;;;5072479;28;20550;-70
2023/02/02 04:54:04;;;;;;;1.20;0.90;;;;;;;;;;5072097;28;20453;-70
2023/02/02 04:56:31;;;;;;;1.00;0.80;;;;;;;;;;5071427;28;20457;-71
2023/02/02 04:58:58;;;;;;;0.70;0.50;;;;;;;;;;5072540;28;20461;-70
2023/02/02 05:01:25;;;;;;;1.53;0.67;;;;;;;;;;5071838;28;20450;-70
2023/02/02 05:03:52;;;;;;;1.10;0.50;;;;;;;;;;5071292;28;20472;-70
2023/02/02 05:06:21;;;;;;;1.93;0.60;;;;;;;;;;5072861;28;20449;-70
2023/02/02 05:08:48;;;;;;;3.07;0.70;;;;;;;;;;5072560;28;20446;-70
2023/02/02 05:11:16;;;;;;;2.47;1.40;;;;;;;;;;5072379;28;20441;-70
2023/02/02 05:13:45;;;;;;;0.93;0.70;;;;;;;;;;5071081;28;20462;-70
2023/02/02 05:16:12;;;;;;;1.37;0.80;;;;;;;;;;5072125;28;20438;-70
2023/02/02 05:18:40;;;;;;;1.00;0.80;;;;;;;;;;5064979;28;20772;-70
2023/02/02 05:21:07;;;;;;;1.87;0.73;;;;;;;;;;5067133;28;20450;-69
2023/02/02 05:23:35;;;;;;;3.40;0.90;;;;;;;;;;5063730;28;20767;-72
2023/02/02 05:26:03;;;;;;;1.87;0.90;;;;;;;;;;5072222;28;20944;-70
2023/02/02 05:28:30;;;;;;;8.53;0.90;;;;;;;;;;5072179;28;20839;-70
2023/02/02 05:30:57;;;;;;;1.00;0.70;;;;;;;;;;5072134;28;20441;-69
2023/02/02 05:33:24;;;;;;;1.27;0.43;;;;;;;;;;5071110;28;20552;-70
2023/02/02 05:35:51;;;;;;;1.93;1.73;;;;;;;;;;5072397;28;20453;-70
2023/02/02 05:38:18;;;;;;;0.77;0.53;;;;;;;;;;5072430;28;20430;-70
2023/02/02 05:40:48;;;;;;;1.63;1.30;;;;;;;;;;5071620;28;20437;-70
2023/02/02 05:43:15;;;;;;;1.37;0.60;;;;;;;;;;5071513;28;20448;-70
2023/02/02 05:45:43;;;;;;;1.70;1.17;;;;;;;;;;5071462;28;20489;-70
2023/02/02 05:48:12;;;;;;;1.30;0.70;;;;;;;;;;5071916;28;20437;-70
2023/02/02 05:50:39;;;;;;;0.90;0.50;;;;;;;;;;5071132;28;20438;-70
2023/02/02 05:53:06;;;;;;;1.60;0.90;;;;;;;;;;5071792;28;20532;-70
2023/02/02 05:55:33;;;;;;;0.70;0.50;;;;;;;;;;5070806;28;20641;-70
2023/02/02 05:58:02;;;;;;;1.20;0.70;;;;;;;;;;5071731;28;20434;-70
2023/02/02 06:00:29;;;;;;;1.00;0.70;;;;;;;;;;5071122;28;20441;-70
2023/02/02 06:02:56;;;;;;;1.00;0.67;;;;;;;;;;5070902;28;20905;-70
2023/02/02 06:05:23;;;;;;;1.43;0.80;;;;;;;;;;5069903;28;20500;-70
2023/02/02 06:07:50;;;;;;;1.13;0.70;;;;;;;;;;5072096;28;20437;-73
2023/02/02 06:10:17;;;;;;;0.90;0.70;;;;;;;;;;5061090;28;20449;-70
2023/02/02 06:12:44;;;;;;;1.10;0.60;;;;;;;;;;5070856;28;20441;-71
2023/02/02 06:15:13;;;;;;;2.57;0.67;;;;;;;;;;5071592;28;20453;-70
2023/02/02 06:17:40;;;;;;;1.33;0.73;;;;;;;;;;5071042;28;20925;-70
2023/02/02 06:20:07;;;;;;;1.30;0.80;;;;;;;;;;5071742;28;20444;-70
2023/02/02 06:22:36;;;;;;;3.03;1.00;;;;;;;;;;5070945;28;20457;-71
2023/02/02 06:25:04;;;;;;;2.30;1.00;;;;;;;;;;5071054;28;20477;-69
2023/02/02 06:27:31;;;;;;;2.40;1.13;;;;;;;;;;5072972;28;20491;-73
2023/02/02 06:29:58;;;;;;;1.40;0.87;;;;;;;;;;5072091;28;20438;-71
2023/02/02 06:32:29;;;;;;;2.23;0.70;;;;;;;;;;5070966;28;20445;-69
2023/02/02 06:34:56;;;;;;;1.87;0.60;;;;;;;;;;5071159;28;20438;-69
2023/02/02 06:37:23;;;;;;;1.07;0.70;;;;;;;;;;5071017;28;20445;-68
2023/02/02 06:39:50;;;;;;;0.90;0.70;;;;;;;;;;5071735;28;20434;-69
2023/02/02 06:42:17;;;;;;;3.27;1.23;;;;;;;;;;5071028;28;20446;-72
2023/02/02 06:44:44;;;;;;;7.53;1.63;;;;;;;;;;5070236;28;20504;-71
2023/02/02 06:47:11;;;;;;;0.80;0.70;;;;;;;;;;5071358;28;20442;-71
2023/02/02 06:49:40;;;;;;;4.83;1.20;;;;;;;;;;5070477;28;20442;-71
2023/02/02 06:52:07;;;;;;;1.40;0.93;;;;;;;;;;5062137;28;20803;-72
2023/02/02 06:54:34;;;;;;;4.10;1.77;;;;;;;;;;5070179;28;20460;-71
2023/02/02 06:57:01;;;;;;;1.60;1.40;;;;;;;;;;5070583;28;20963;-72
2023/02/02 06:59:28;;;;;;;1.90;1.40;;;;;;;;;;5070150;28;20444;-71
2023/02/02 07:01:55;;;;;;;10.80;1.10;;;;;;;;;;5070884;28;20465;-72
2023/02/02 07:04:23;;;;;;;0.90;0.70;;;;;;;;;;5070390;28;20485;-71
2023/02/02 07:06:51;;;;;;;3.63;1.23;;;;;;;;;;5071128;28;20959;-72
2023/02/02 07:09:18;;;;;;;1.30;0.70;;;;;;;;;;5070970;28;20442;-72
2023/02/02 07:11:45;;;;;;;2.67;0.80;;;;;;;;;;5069913;28;20449;-72
2023/02/02 07:14:13;;;;;;;1.10;0.80;;;;;;;;;;5070919;28;20825;-72
2023/02/02 07:16:40;;;;;;;1.73;0.90;;;;;;;;;;5070254;28;20877;-72
2023/02/02 07:19:07;;;;;;;1.77;0.80;;;;;;;;;;5070795;28;20468;-72
2023/02/02 07:21:35;;;;;;;1.20;1.07;;;;;;;;;;5070063;28;20457;-72
2023/02/02 07:24:04;;;;;;;1.90;0.87;;;;;;;;;;5070694;28;20446;-72
2023/02/02 07:26:31;;;;;;;2.67;1.27;;;;;;;;;;5070377;28;20512;-72
2023/02/02 07:28:58;;;;;;;1.03;0.60;;;;;;;;;;5070887;28;20880;-72
2023/02/02 07:31:27;;;;;;;1.03;0.80;;;;;;;;;;5069963;28;20453;-72
2023/02/02 07:33:55;;;;;;;2.10;0.83;;;;;;;;;;5070587;28;20448;-71
2023/02/02 07:36:23;;;;;;;0.80;0.60;;;;;;;;;;5070359;28;20822;-71
2023/02/02 07:38:52;;;;;;;0.60;0.40;;;;;;;;;;5070930;28;20510;-73
2023/02/02 07:41:21;;;;;;;1.13;0.70;;;;;;;;;;5070631;28;20491;-72
2023/02/02 07:43:49;;;;;;;2.17;0.70;;;;;;;;;;5070678;28;20445;-72
2023/02/02 07:46:16;;;;;;;3.23;1.20;;;;;;;;;;5070556;28;20503;-72
2023/02/02 07:48:43;;;;;;;1.67;0.70;;;;;;;;;;5070132;28;20452;-72
2023/02/02 07:51:12;;;;;;;0.90;0.63;;;;;;;;;;5070011;28;20450;-72
2023/02/02 07:53:39;;;;;;;2.03;0.60;;;;;;;;;;5070078;28;20497;-72
2023/02/02 07:56:07;;;;;;;0.80;0.53;;;;;;;;;;5070740;28;20445;-72
2023/02/02 07:58:36;;;;;;;3.10;0.63;;;;;;;;;;5070209;28;20465;-73
2023/02/02 08:01:03;;;;;;;1.00;0.90;;;;;;;;;;5069801;28;20454;-72
2023/02/02 08:03:30;;;;;;;2.10;0.87;;;;;;;;;;5070193;28;20456;-72
2023/02/02 08:05:58;;;;;;;5.20;1.17;;;;;;;;;;5070269;28;20489;-72
2023/02/02 08:08:25;;;;;;;2.00;0.80;;;;;;;;;;5070106;28;20809;-73
2023/02/02 08:10:53;;;;;;;1.73;0.67;;;;;;;;;;5069924;28;20848;-72
2023/02/02 08:13:20;;;;;;;1.07;0.70;;;;;;;;;;5070707;28;20452;-73
2023/02/02 08:15:49;;;;;;;2.33;0.50;;;;;;;;;;5070857;28;20461;-72
2023/02/02 08:18:16;;;;;;;2.40;1.13;;;;;;;;;;5070762;28;20450;-73
2023/02/02 08:20:43;;;;;;;1.07;0.60;;;;;;;;;;5069064;28;20442;-73
2023/02/02 08:23:14;;;;;;;1.53;1.00;;;;;;;;;;5072610;28;20445;-72
2023/02/02 08:25:41;;;;;;;3.40;1.20;;;;;;;;;;5073464;28;20738;-72
2023/02/02 08:28:08;;;;;;;3.23;1.30;;;;;;;;;;5073997;28;20452;-72
2023/02/02 08:30:36;;;;;;;2.93;0.70;;;;;;;;;;5072642;28;20453;-72
2023/02/02 08:33:04;;;;;;;1.43;0.50;;;;;;;;;;5073831;28;20450;-73
2023/02/02 08:35:31;;;;;;;1.57;0.70;;;;;;;;;;5073339;28;20450;-74
2023/02/02 08:38:01;;;;;;;2.17;0.93;;;;;;;;;;5073813;28;20457;-74
2023/02/02 08:40:29;;;;;;;1.27;0.80;;;;;;;;;;5072853;28;20449;-71
2023/02/02 08:42:56;;;;;;;1.50;0.97;;;;;;;;;;5073681;28;20457;-72
2023/02/02 08:45:23;;;;;;;1.10;0.80;;;;;;;;;;5072620;28;20497;-72
2023/02/02 08:47:50;;;;;;;0.90;0.70;;;;;;;;;;5073766;28;20452;-72
2023/02/02 08:50:18;;;;;;;2.00;0.80;;;;;;;;;;5073461;28;20445;-72
2023/02/02 08:52:46;;;;;;;2.50;0.87;;;;;;;;;;5072290;28;20936;-71
2023/02/02 08:55:13;;;;;;;1.63;0.77;;;;;;;;;;5073382;28;20464;-72
2023/02/02 08:57:40;;;;;;;1.83;1.33;;;;;;;;;;5072851;28;20445;-72
2023/02/02 09:00:08;;;;;;;1.47;1.23;;;;;;;;;;5073240;28;20445;-72
2023/02/02 09:02:35;;;;;;;4.30;0.90;;;;;;;;;;5072357;28;20453;-72
2023/02/02 09:05:02;;;;;;;3.10;0.87;;;;;;;;;;5073038;28;20488;-72
2023/02/02 09:07:32;;;;;;;2.07;0.80;;;;;;;;;;5072334;28;20454;-72
2023/02/02 09:09:59;;;;;;;0.93;0.83;;;;;;;;;;5072956;28;20442;-72
2023/02/02 09:12:26;;;;;;;1.27;1.00;;;;;;;;;;5072140;28;20499;-73
2023/02/02 09:14:53;;;;;;;3.20;2.03;;;;;;;;;;5073037;28;20449;-72
2023/02/02 09:17:21;;;;;;;2.57;0.83;;;;;;;;;;5073124;28;20456;-72
2023/02/02 09:19:48;;;;;;;2.73;0.97;;;;;;;;;;5072705;28;20450;-72
2023/02/02 09:22:15;;;;;;;0.77;0.63;;;;;;;;;;5072207;28;20925;-72
2023/02/02 09:24:43;;;;;;;0.90;0.80;;;;;;;;;;5072045;28;20959;-72
2023/02/02 09:27:10;;;;;;;1.10;0.93;;;;;;;;;;5072822;28;20445;-72
2023/02/02 09:29:37;;;;;;;1.43;1.27;;;;;;;;;;5072048;28;20449;-72
2023/02/02 09:32:05;;;;;;;1.37;0.90;;;;;;;;;;5072434;28;20453;-73
2023/02/02 09:34:32;;;;;;;2.23;0.80;;;;;;;;;;5071599;28;20473;-72
2023/02/02 09:36:59;;;;;;;1.80;0.90;;;;;;;;;;5072613;28;20457;-72
2023/02/02 09:39:26;;;;;;;3.70;1.00;;;;;;;;;;5072037;28;20457;-73
2023/02/02 09:42:08;;;;;;;0.93;0.83;;;;;;;;;;5071771;28;20454;-72
2023/02/02 09:44:45;;;;;;;1.80;0.83;;;;;;;;;;5071753;28;20504;-72
2023/02/02 09:47:16;;;;;;;1.90;0.93;;;;;;;;;;5059244;28;20504;-73
2023/02/02 09:49:50;;;;;;;9.63;1.30;;;;;;;;;;5071714;28;20779;-72
2023/02/02 09:52:19;;;;;;;2.83;1.00;;;;;;;;;;5072208;28;20446;-72
2023/02/02 09:54:47;;;;;;;3.17;1.53;;;;;;;;;;5072160;28;20459;-73
2023/02/02 09:57:18;;;;;;;2.10;1.20;;;;;;;;;;5072366;28;20458;-72
2023/02/02 09:59:46;;;;;;;2.63;1.03;;;;;;;;;;5071690;28;20491;-73
2023/02/02 10:02:17;;;;;;;1.53;1.30;;;;;;;;;;5071849;28;20473;-72
2023/02/02 10:04:45;;;;;;;3.47;1.00;;;;;;;;;;5071379;28;20783;-72
2023/02/02 10:07:14;;;;;;;3.50;1.13;;;;;;;;;;5071714;28;21026;-72
2023/02/02 10:09:43;;;;;;;1.63;1.00;;;;;;;;;;5071478;28;20727;-72
2023/02/02 10:12:17;;;;;;;1.80;1.23;;;;;;;;;;5071351;28;20805;-72
2023/02/02 10:14:49;;;;;;;4.10;0.93;;;;;;;;;;5071491;28;20453;-72
2023/02/02 10:17:25;;;;;;;1.50;1.10;;;;;;;;;;5071825;28;20454;-72
2023/02/02 10:19:55;;;;;;;2.03;1.40;;;;;;;;;;5071893;28;20445;-72
2023/02/02 10:22:25;;;;;;;5.67;1.40;;;;;;;;;;5070671;28;20799;-72
2023/02/02 10:24:52;;;;;;;2.03;1.30;;;;;;;;;;5071359;28;20456;-72
2023/02/02 10:27:25;;;;;;;2.17;1.00;;;;;;;;;;5071631;28;20527;-73
2023/02/02 10:29:57;;;;;;;3.57;1.23;;;;;;;;;;5071679;28;20452;-72
2023/02/02 10:32:25;;;;;;;2.30;1.50;;;;;;;;;;5070345;28;20959;-73
2023/02/02 10:35:02;;;;;;;6.80;1.20;;;;;;;;;;5071532;28;20471;-72
2023/02/02 10:37:33;;;;;;;1.43;0.93;;;;;;;;;;5057885;28;20456;-72
2023/02/02 10:40:05;;;;;;;2.93;1.00;;;;;;;;;;5071510;28;20449;-72
2023/02/02 10:42:40;;;;;;;2.10;1.03;;;;;;;;;;5070727;28;20446;-73
2023/02/02 10:45:12;;;;;;;1.57;0.90;;;;;;;;;;5070142;28;20481;-72
2023/02/02 10:47:40;;;;;;;2.80;1.40;;;;;;;;;;5070895;28;20445;-72
2023/02/02 10:50:17;;;;;;;2.30;1.20;;;;;;;;;;5071042;28;20453;-72
2023/02/02 10:52:45;;;;;;;4.87;0.60;;;;;;;;;;5070785;28;20456;-72
2023/02/02 10:55:19;;;;;;;1.10;1.00;;;;;;;;;;5071220;28;20445;-72
2023/02/02 10:57:49;;;;;;;2.90;1.07;;;;;;;;;;5071449;28;20445;-72
2023/02/02 11:00:20;;;;;;;3.57;0.90;;;;;;;;;;5057607;28;20457;-72
2023/02/02 11:02:48;;;;;;;12.90;2.33;;;;;;;;;;5071474;28;20464;-73
2023/02/02 11:08:03;;;;;;;3.80;1.23;;;;;;;;;;5070901;28;20833;-72
2023/02/02 11:10:32;;;;;;;2.23;0.70;;;;;;;;;;5070479;28;20450;-72
2023/02/02 11:13:01;;;;;;;1.77;1.50;;;;;;;;;;5071111;28;20445;-72
2023/02/02 11:15:30;;;;;;;5.80;1.27;;;;;;;;;;5070706;28;20449;-72
2023/02/02 11:18:13;;;;;;;1.20;0.90;;;;;;;;;;5070969;28;20464;-72
2023/02/02 11:20:40;;;;;;;2.60;0.80;;;;;;;;;;5069993;28;20520;-73
2023/02/02 11:23:07;;;;;;;1.80;1.70;;;;;;;;;;5070695;28;20450;-72
2023/02/02 11:25:36;;;;;;;2.23;1.53;;;;;;;;;;5070388;28;20441;-72
2023/02/02 11:28:12;;;;;;;3.73;1.17;;;;;;;;;;5070663;28;20983;-72
2023/02/02 11:30:41;;;;;;;3.00;1.03;;;;;;;;;;5069935;28;20477;-72
2023/02/02 11:33:20;;;;;;;6.43;0.83;;;;;;;;;;5070947;28;20519;-71
2023/02/02 11:35:53;;;;;;;1.57;1.23;;;;;;;;;;5070484;28;20449;-72
2023/02/02 11:38:20;;;;;;;1.10;0.77;;;;;;;;;;5070722;28;20452;-71
2023/02/02 11:40:54;;;;;;;1.20;0.80;;;;;;;;;;5070616;28;20446;-72
2023/02/02 11:43:25;;;;;;;1.00;0.90;;;;;;;;;;5070980;28;20441;-72
2023/02/02 11:45:56;;;;;;;1.43;0.63;;;;;;;;;;5070381;28;20481;-72
2023/02/02 11:48:25;;;;;;;1.90;1.37;;;;;;;;;;5070084;28;20449;-72
2023/02/02 11:50:53;;;;;;;1.63;1.20;;;;;;;;;;5069961;28;20453;-71
2023/02/02 11:53:24;;;;;;;3.60;1.27;;;;;;;;;;5070725;28;20502;-72
2023/02/02 11:55:51;;;;;;;1.00;0.90;;;;;;;;;;5071124;28;20464;-71
2023/02/02 11:58:23;;;;;;;1.57;0.80;;;;;;;;;;5074763;28;20445;-73
2023/02/02 12:00:52;;;;;;;8.80;0.90;;;;;;;;;;5074294;28;20446;-72
2023/02/02 12:03:28;;;;;;;2.20;0.80;;;;;;;;;;5074437;28;20441;-72
2023/02/02 12:05:56;;;;;;;5.30;0.87;;;;;;;;;;5074208;28;20713;-73
2023/02/02 12:08:23;;;;;;;5.70;1.00;;;;;;;;;;5073837;28;20460;-72
2023/02/02 12:10:55;;;;;;;2.90;0.90;;;;;;;;;;5073951;28;20449;-71
2023/02/02 12:13:28;;;;;;;1.63;0.80;;;;;;;;;;5073408;28;20487;-73
2023/02/02 12:16:01;;;;;;;2.00;1.10;;;;;;;;;;5073748;28;20662;-72
2023/02/02 12:18:39;;;;;;;3.20;1.40;;;;;;;;;;5073382;28;20446;-73
2023/02/02 12:21:06;;;;;;;2.53;1.37;;;;;;;;;;5073420;28;20951;-71
2023/02/02 12:23:39;;;;;;;1.80;0.97;;;;;;;;;;5073636;28;20464;-71
2023/02/02 12:26:18;;;;;;;2.50;1.57;;;;;;;;;;5073615;28;20975;-70
2023/02/02 12:28:54;;;;;;;1.83;1.27;;;;;;;;;;5073457;28;20445;-71
2023/02/02 12:31:25;;;;;;;3.20;0.80;;;;;;;;;;5073482;28;20453;-68
2023/02/02 12:33:57;;;;;;;5.30;0.83;;;;;;;;;;5073867;28;20445;-70
2023/02/02 12:36:33;;;;;;;1.50;1.07;;;;;;;;;;5073285;28;20524;-71
2023/02/02 12:39:09;;;;;;;3.03;0.90;;;;;;;;;;5074227;28;20792;-71
2023/02/02 12:41:53;;;;;;;1.40;0.70;;;;;;;;;;5072405;28;20437;-70
2023/02/02 12:44:23;;;;;;;1.03;0.93;;;;;;;;;;5073618;28;20473;-71
2023/02/02 12:46:57;;;;;;;1.43;0.97;;;;;;;;;;5073710;28;20473;-71
2023/02/02 12:49:35;;;;;;;0.90;0.80;;;;;;;;;;5073068;28;20445;-70
2023/02/02 12:52:11;;;;;;;5.97;2.30;;;;;;;;;;5073014;28;20440;-70
2023/02/02 12:55:02;;;;;;;1.00;0.80;;;;;;;;;;5072935;28;20924;-71
2023/02/02 12:57:34;;;;;;;1.17;0.90;;;;;;;;;;5057508;28;20464;-71
2023/02/02 13:00:09;;;;;;;3.83;1.20;;;;;;;;;;5072999;28;20808;-69
2023/02/02 13:02:39;;;;;;;2.23;0.87;;;;;;;;;;5072659;28;20618;-70
2023/02/02 13:05:19;;;;;;;3.80;1.07;;;;;;;;;;5072989;28;20968;-71
2023/02/02 13:07:47;;;;;;;2.20;0.93;;;;;;;;;;5072497;28;20488;-71
2023/02/02 13:10:18;;;;;;;3.50;1.17;;;;;;;;;;5072576;28;20452;-71
2023/02/02 13:12:48;;;;;;;1.47;0.90;;;;;;;;;;5072646;28;20448;-70
2023/02/02 13:15:18;;;;;;;1.33;0.80;;;;;;;;;;5072706;28;20956;-71
2023/02/02 13:17:48;;;;;;;2.00;0.90;;;;;;;;;;5072471;28;20449;-71
2023/02/02 13:20:23;;;;;;;1.13;0.90;;;;;;;;;;5072503;28;20445;-70
2023/02/02 13:22:51;;;;;;;0.90;0.80;;;;;;;;;;5072818;28;20452;-71
2023/02/02 13:25:20;;;;;;;1.47;0.57;;;;;;;;;;5072646;28;20450;-71
2023/02/02 13:27:48;;;;;;;3.60;1.87;;;;;;;;;;5072912;28;20488;-71
2023/02/02 13:30:23;;;;;;;3.90;1.60;;;;;;;;;;5072213;28;20483;-72
2023/02/02 13:32:52;;;;;;;1.57;0.87;;;;;;;;;;5073185;28;20437;-71
2023/02/02 13:35:22;;;;;;;4.03;0.90;;;;;;;;;;5072569;28;20790;-71
2023/02/02 13:37:51;;;;;;;1.73;0.93;;;;;;;;;;5072747;28;20437;-72
2023/02/02 13:40:24;;;;;;;1.20;0.63;;;;;;;;;;5068542;28;20454;-71
2023/02/02 13:42:55;;;;;;;2.67;1.70;;;;;;;;;;5072437;28;20444;-70
2023/02/02 13:45:33;;;;;;;1.60;0.77;;;;;;;;;;5071481;28;20488;-70
2023/02/02 13:48:05;;;;;;;1.40;1.00;;;;;;;;;;5072488;28;20476;-70
2023/02/02 13:50:37;;;;;;;4.80;1.50;;;;;;;;;;5071464;28;20452;-71
2023/02/02 13:53:13;;;;;;;1.63;0.70;;;;;;;;;;5072412;28;20438;-70
2023/02/02 13:55:53;;;;;;;1.40;0.73;;;;;;;;;;5071515;28;20450;-70
2023/02/02 13:58:27;;;;;;;1.10;1.00;;;;;;;;;;5072481;28;20446;-71
2023/02/02 14:00:57;;;;;;;2.00;1.23;;;;;;;;;;5071903;28;20433;-70
2023/02/02 14:03:31;;;;;;;2.90;0.90;;;;;;;;;;5071442;28;20437;-70
2023/02/02 14:06:11;;;;;;;2.60;1.23;;;;;;;;;;5071987;28;20468;-71
2023/02/02 14:08:38;;;;;;;1.47;0.90;;;;;;;;;;5071349;28;20452;-71
2023/02/02 14:11:07;;;;;;;2.60;1.53;;;;;;;;;;5071671;28;20828;-72
2023/02/02 14:16:43;;;;;;;11.63;2.43;;;;;;;;;;5071303;28;20429;-70
2023/02/02 14:19:15;;;;;;;1.60;0.93;;;;;;;;;;5071501;28;20448;-71
2023/02/02 14:22:00;;;;;;;1.27;0.87;;;;;;;;;;5070932;28;20780;-71
2023/02/02 14:24:48;;;;;;;2.73;0.83;;;;;;;;;;5071151;28;20437;-71
2023/02/02 14:27:33;;;;;;;1.50;0.90;;;;;;;;;;5068241;28;20474;-71
2023/02/02 14:30:01;;;;;;;1.30;0.70;;;;;;;;;;5071544;28;20455;-71
2023/02/02 14:32:31;;;;;;;1.57;0.93;;;;;;;;;;5070903;28;20457;-71
2023/02/02 14:34:59;;;;;;;3.80;1.00;;;;;;;;;;5071563;28;20492;-71
2023/02/02 14:37:47;;;;;;;3.70;1.30;;;;;;;;;;5070698;28;20461;-71
2023/02/02 14:40:26;;;;;;;12.90;2.90;;;;;;;;;;5070776;28;20445;-71
2023/02/02 14:45:46;;;;;;;2.90;1.13;;;;;;;;;;5070283;28;20554;-71
2023/02/02 14:48:16;;;;;;;2.20;0.90;;;;;;;;;;5071208;28;20521;-71
2023/02/02 14:50:48;;;;;;;2.20;1.23;;;;;;;;;;5070115;28;20956;-71
2023/02/02 14:53:20;;;;;;;2.60;1.10;;;;;;;;;;5071384;28;20568;-71
2023/02/02 14:55:55;;;;;;;1.57;1.00;;;;;;;;;;5071576;28;20808;-71
2023/02/02 14:58:24;;;;;;;3.63;1.03;;;;;;;;;;5070672;28;20499;-70
2023/02/02 15:00:56;;;;;;;1.23;0.80;;;;;;;;;;5070848;28;20446;-71
2023/02/02 15:03:41;;;;;;;2.17;0.93;;;;;;;;;;5070658;28;20444;-71
2023/02/02 15:06:14;;;;;;;1.10;0.83;;;;;;;;;;5070661;28;20450;-71
2023/02/02 15:08:43;;;;;;;3.33;1.70;;;;;;;;;;5070709;28;20859;-71
2023/02/02 15:11:30;;;;;;;2.03;0.70;;;;;;;;;;5070674;28;20532;-71
2023/02/02 15:14:05;;;;;;;2.13;1.80;;;;;;;;;;5070813;28;20524;-71
2023/02/02 15:16:34;;;;;;;2.43;0.70;;;;;;;;;;5057989;28;20483;-71